createdAt,value
2022-11-17T00:01:28.920Z,2.00
2022-11-17T00:03:55.453Z,2.03
2022-11-17T00:06:21.995Z,1.97
2022-11-17T00:08:49.081Z,2.10
2022-11-17T00:11:15.705Z,2.30
2022-11-17T00:14:00.943Z,1.93
2022-11-17T00:16:27.430Z,1.83
2022-11-17T00:19:12.395Z,1.53
2022-11-17T00:21:38.895Z,1.47
2022-11-17T00:24:05.778Z,1.50
2022-11-17T00:26:34.182Z,1.90
2022-11-17T00:29:02.887Z,1.50
2022-11-17T00:31:49.988Z,1.50
2022-11-17T00:34:21.507Z,1.40
2022-11-17T00:36:50.321Z,1.40
2022-11-17T00:39:18.812Z,1.23
2022-11-17T00:41:45.375Z,1.27
2022-11-17T00:44:12.344Z,1.33
2022-11-17T00:46:39.516Z,1.23
2022-11-17T00:49:07.175Z,1.10
2022-11-17T00:51:33.911Z,1.30
2022-11-17T00:54:01.089Z,1.53
2022-11-17T00:56:27.907Z,1.27
2022-11-17T00:58:54.796Z,1.60
2022-11-17T01:01:21.440Z,0.90
2022-11-17T01:03:48.446Z,1.30
2022-11-17T01:06:18.952Z,1.20
2022-11-17T01:08:45.513Z,1.20
2022-11-17T01:11:18.398Z,1.20
2022-11-17T01:13:46.614Z,1.10
2022-11-17T01:16:15.748Z,1.10
2022-11-17T01:18:44.019Z,1.20
2022-11-17T01:21:13.174Z,1.40
2022-11-17T01:23:41.805Z,1.23
2022-11-17T01:26:13.612Z,1.00
2022-11-17T01:28:41.290Z,1.10
2022-11-17T01:31:13.841Z,1.37
2022-11-17T01:33:41.155Z,1.07
2022-11-17T01:36:21.127Z,1.10
2022-11-17T01:38:47.682Z,1.10
2022-11-17T01:41:17.224Z,1.40
2022-11-17T01:43:55.686Z,1.37
2022-11-17T01:46:39.962Z,1.43
2022-11-17T01:49:11.744Z,1.30
2022-11-17T01:51:42.917Z,1.43
2022-11-17T01:54:11.195Z,1.37
2022-11-17T01:56:41.748Z,1.20
2022-11-17T01:59:24.876Z,1.03
2022-11-17T02:01:56.660Z,1.37
2022-11-17T02:04:49.981Z,1.60
2022-11-17T02:07:26.774Z,1.53
2022-11-17T02:09:54.679Z,1.70
2022-11-17T02:12:24.690Z,1.20
2022-11-17T02:14:51.745Z,1.10
2022-11-17T02:17:19.481Z,1.40
2022-11-17T02:20:15.908Z,1.40
2022-11-17T02:23:04.450Z,1.47
2022-11-17T02:25:55.564Z,1.37
2022-11-17T02:28:32.050Z,1.03
2022-11-17T02:31:29.110Z,1.30
2022-11-17T02:34:04.545Z,1.27
2022-11-17T02:36:51.241Z,1.33
2022-11-17T02:39:38.386Z,1.60
2022-11-17T02:42:14.321Z,1.33
2022-11-17T02:44:48.029Z,1.40
2022-11-17T02:47:25.956Z,1.40
2022-11-17T02:50:10.669Z,1.20
2022-11-17T02:52:37.566Z,1.43
2022-11-17T02:55:07.563Z,1.30
2022-11-17T02:57:40.016Z,1.20
2022-11-17T03:00:15.311Z,1.27
2022-11-17T03:02:58.523Z,1.30
2022-11-17T03:05:56.243Z,1.27
2022-11-17T03:08:31.599Z,1.50
2022-11-17T03:11:02.975Z,1.13
2022-11-17T03:13:57.010Z,1.60
2022-11-17T03:16:45.700Z,1.30
2022-11-17T03:19:18.324Z,1.10
2022-11-17T03:21:51.702Z,1.40
2022-11-17T03:24:30.300Z,1.73
2022-11-17T03:27:02.857Z,1.10
2022-11-17T03:29:31.979Z,1.40
2022-11-17T03:32:02.407Z,1.67
2022-11-17T03:34:33.140Z,1.20
2022-11-17T03:37:05.633Z,0.83
2022-11-17T03:39:34.629Z,1.27
2022-11-17T03:42:05.370Z,1.20
2022-11-17T03:44:35.584Z,1.33
2022-11-17T03:47:05.413Z,1.10
2022-11-17T03:49:59.595Z,1.20
2022-11-17T03:52:29.686Z,1.20
2022-11-17T03:54:57.183Z,1.30
2022-11-17T03:57:35.007Z,0.90
2022-11-17T04:00:08.822Z,1.00
2022-11-17T04:02:35.645Z,1.23
2022-11-17T04:05:08.943Z,1.17
2022-11-17T04:07:40.264Z,1.00
2022-11-17T04:10:11.873Z,1.10
2022-11-17T04:12:57.442Z,1.13
2022-11-17T04:15:42.819Z,1.13
2022-11-17T04:18:09.327Z,1.07
2022-11-17T04:20:36.103Z,1.40
2022-11-17T04:23:07.193Z,1.23
2022-11-17T04:25:58.020Z,1.23
2022-11-17T04:28:38.486Z,1.20
2022-11-17T04:31:20.234Z,1.03
2022-11-17T04:33:55.135Z,1.10
2022-11-17T04:36:24.458Z,1.10
2022-11-17T04:38:54.011Z,1.10
2022-11-17T04:41:40.531Z,0.87
2022-11-17T04:44:08.629Z,1.30
2022-11-17T04:46:36.987Z,1.13
2022-11-17T04:49:04.684Z,1.10
2022-11-17T04:51:32.290Z,1.10
2022-11-17T04:53:59.852Z,1.00
2022-11-17T04:56:27.566Z,1.03
2022-11-17T04:58:54.213Z,1.20
2022-11-17T05:01:22.787Z,0.90
2022-11-17T05:04:00.213Z,0.90
2022-11-17T05:06:37.187Z,1.00
2022-11-17T05:09:07.683Z,0.83
2022-11-17T05:11:53.196Z,1.40
2022-11-17T05:14:21.497Z,1.20
2022-11-17T05:17:11.209Z,1.20
2022-11-17T05:19:41.337Z,1.30
2022-11-17T05:22:27.984Z,1.17
2022-11-17T05:24:54.887Z,0.97
2022-11-17T05:27:22.365Z,0.80
2022-11-17T05:29:48.871Z,1.33
2022-11-17T05:32:15.631Z,0.93
2022-11-17T05:34:42.075Z,1.10
2022-11-17T05:37:08.550Z,1.20
2022-11-17T05:39:35.072Z,1.53
2022-11-17T05:42:01.669Z,1.20
2022-11-17T05:44:28.180Z,1.13
2022-11-17T05:46:54.702Z,1.23
2022-11-17T05:49:21.138Z,1.33
2022-11-17T05:51:52.440Z,1.40
2022-11-17T05:54:19.521Z,1.03
2022-11-17T05:57:04.574Z,1.30
2022-11-17T05:59:40.281Z,1.33
2022-11-17T06:02:14.674Z,1.03
2022-11-17T06:04:41.229Z,1.10
2022-11-17T06:07:07.901Z,1.30
2022-11-17T06:09:37.388Z,1.03
2022-11-17T06:12:06.295Z,1.20
2022-11-17T06:14:34.167Z,1.30
2022-11-17T06:17:05.585Z,1.53
2022-11-17T06:19:38.959Z,1.10
2022-11-17T06:22:12.142Z,1.20
2022-11-17T06:24:40.616Z,1.30
2022-11-17T06:27:07.684Z,1.40
2022-11-17T06:29:36.180Z,1.23
2022-11-17T06:32:06.317Z,1.40
2022-11-17T06:34:34.277Z,1.57
2022-11-17T06:37:00.836Z,1.70
2022-11-17T06:39:27.390Z,1.57
2022-11-17T06:41:53.874Z,1.33
2022-11-17T06:44:20.636Z,1.27
2022-11-17T06:46:49.193Z,1.30
2022-11-17T06:49:16.323Z,1.20
2022-11-17T06:51:45.439Z,1.67
2022-11-17T06:54:14.499Z,1.30
2022-11-17T06:56:41.181Z,1.10
2022-11-17T06:59:07.636Z,1.30
2022-11-17T07:01:34.305Z,1.50
2022-11-17T07:04:00.734Z,1.20
2022-11-17T07:06:27.181Z,1.57
2022-11-17T07:08:56.121Z,1.20
2022-11-17T07:11:22.563Z,1.50
2022-11-17T07:13:49.007Z,1.60
2022-11-17T07:16:23.227Z,1.50
2022-11-17T07:18:50.981Z,1.30
2022-11-17T07:21:18.119Z,1.10
2022-11-17T07:23:46.367Z,1.73
2022-11-17T07:26:13.103Z,1.50
2022-11-17T07:28:39.686Z,1.17
2022-11-17T07:31:08.996Z,1.30
2022-11-17T07:33:36.184Z,1.17
2022-11-17T07:36:09.539Z,1.30
2022-11-17T07:38:37.953Z,1.10
2022-11-17T07:41:06.071Z,1.30
2022-11-17T07:43:34.445Z,1.43
2022-11-17T07:46:05.654Z,1.30
2022-11-17T07:48:33.188Z,1.10
2022-11-17T07:51:00.455Z,1.40
2022-11-17T07:53:27.354Z,1.03
2022-11-17T07:55:53.854Z,1.10
2022-11-17T07:58:20.386Z,1.20
2022-11-17T08:00:46.848Z,1.00
2022-11-17T08:03:13.427Z,1.10
2022-11-17T08:05:43.542Z,1.30
2022-11-17T08:08:10.587Z,1.10
2022-11-17T08:10:37.252Z,0.90
2022-11-17T08:13:04.313Z,1.00
2022-11-17T08:15:31.730Z,1.00
2022-11-17T13:34:30.426Z,0.90
2022-11-17T13:36:58.895Z,0.87
2022-11-17T13:39:27.900Z,1.17
2022-11-17T13:41:55.648Z,0.80
2022-11-17T13:44:28.348Z,0.97
2022-11-17T13:46:55.340Z,1.10
2022-11-17T13:49:51.034Z,0.90
2022-11-17T13:52:43.622Z,0.80
2022-11-17T13:55:18.770Z,0.90
2022-11-17T13:58:06.873Z,0.93
2022-11-17T14:00:34.454Z,0.83
2022-11-17T14:03:05.973Z,0.87
2022-11-17T14:05:33.764Z,1.00
2022-11-17T14:08:22.657Z,1.10
2022-11-17T14:10:49.332Z,1.00
2022-11-17T14:13:22.908Z,1.03
2022-11-17T14:15:58.949Z,1.30
2022-11-17T14:26:40.631Z,1.20
2022-11-17T14:29:11.248Z,1.30
2022-11-17T14:34:05.276Z,1.20
2022-11-17T14:36:32.672Z,1.30
2022-11-17T14:39:01.188Z,1.57
2022-11-17T14:41:27.754Z,1.43
2022-11-17T14:43:54.221Z,2.07
2022-11-17T14:46:25.922Z,1.40
2022-11-17T14:48:53.595Z,1.30
2022-11-17T14:51:20.776Z,1.13
2022-11-17T14:53:47.976Z,1.50
2022-11-17T14:56:17.852Z,1.20
2022-11-17T14:58:45.165Z,1.50
2022-11-17T15:01:15.552Z,1.27
2022-11-17T15:03:42.754Z,1.00
2022-11-17T15:06:12.122Z,1.30
2022-11-17T15:08:41.771Z,1.00
2022-11-17T15:11:15.322Z,1.60
2022-11-17T15:13:42.982Z,1.70
2022-11-17T15:16:10.458Z,1.33
2022-11-17T15:18:37.108Z,1.10
2022-11-17T15:21:08.403Z,1.30
2022-11-17T15:23:38.338Z,1.63
2022-11-17T15:26:11.424Z,1.47
2022-11-17T15:28:37.868Z,1.80
2022-11-17T15:31:10.840Z,1.57
2022-11-17T15:33:39.445Z,1.77
2022-11-17T15:36:07.258Z,1.40
2022-11-17T15:38:33.902Z,1.17
2022-11-17T15:41:00.370Z,1.40
2022-11-17T15:43:30.801Z,1.63
2022-11-17T15:46:06.288Z,1.70
2022-11-17T15:48:34.601Z,1.40
2022-11-17T15:51:05.495Z,1.43
2022-11-17T15:53:35.175Z,1.73
2022-11-17T15:56:23.210Z,1.73
2022-11-17T15:58:55.835Z,1.53
2022-11-17T16:01:29.199Z,2.33
2022-11-17T16:04:01.582Z,1.80
2022-11-17T16:06:29.842Z,1.70
2022-11-17T16:08:57.581Z,2.00
2022-11-17T16:11:25.807Z,1.70
2022-11-17T16:13:56.728Z,1.60
2022-11-17T16:16:25.363Z,1.53
2022-11-17T16:18:52.068Z,1.63
2022-11-17T16:21:18.930Z,1.53
2022-11-17T16:23:50.750Z,1.43
2022-11-17T16:26:19.293Z,1.33
2022-11-17T16:28:48.898Z,1.70
2022-11-17T16:31:20.955Z,1.60
2022-11-17T16:33:52.914Z,1.83
2022-11-17T16:36:21.543Z,1.40
2022-11-17T16:39:00.775Z,1.47
2022-11-17T16:41:31.767Z,1.43
2022-11-17T16:43:58.745Z,1.50
2022-11-17T16:46:29.163Z,2.23
2022-11-17T16:48:56.898Z,1.50
2022-11-17T16:51:23.681Z,1.77
2022-11-17T16:54:04.990Z,2.00
2022-11-17T16:56:32.104Z,1.70
2022-11-17T16:58:59.254Z,1.90
2022-11-17T17:01:30.450Z,1.50
2022-11-17T17:03:59.075Z,1.60
2022-11-17T17:06:26.308Z,1.50
2022-11-17T17:08:54.825Z,1.70
2022-11-17T17:11:21.852Z,1.70
2022-11-17T17:13:48.702Z,1.83
2022-11-17T17:16:17.561Z,1.70
2022-11-17T17:18:44.489Z,1.70
2022-11-17T17:21:17.787Z,1.60
2022-11-17T17:23:45.641Z,1.60
2022-11-17T17:26:16.759Z,1.43
2022-11-17T17:28:47.233Z,1.80
2022-11-17T17:31:20.774Z,1.50
2022-11-17T17:33:48.926Z,1.47
2022-11-17T17:36:18.136Z,2.03
2022-11-17T17:38:48.826Z,1.60
2022-11-17T17:41:19.711Z,1.80
2022-11-17T17:43:47.565Z,1.97
2022-11-17T17:46:17.739Z,1.73
2022-11-17T17:48:45.654Z,1.70
2022-11-17T17:51:15.494Z,1.67
2022-11-17T17:53:42.277Z,2.43
2022-11-17T17:56:11.660Z,2.00
2022-11-17T17:58:42.311Z,1.77
2022-11-17T18:01:14.402Z,2.03
2022-11-17T18:03:48.332Z,2.43
2022-11-17T18:06:17.349Z,2.40
2022-11-17T18:08:43.886Z,2.30
2022-11-17T18:11:13.321Z,2.30
2022-11-17T18:13:42.371Z,2.63
2022-11-17T18:16:14.869Z,1.70
2022-11-17T18:18:42.350Z,2.40
2022-11-17T18:21:14.073Z,2.30
2022-11-17T18:23:41.552Z,2.20
2022-11-17T18:26:18.327Z,2.37
2022-11-17T18:28:54.377Z,2.20
2022-11-17T18:31:22.938Z,2.03
2022-11-17T18:33:57.324Z,2.00
2022-11-17T18:36:25.063Z,2.23
2022-11-17T18:38:52.809Z,1.77
2022-11-17T18:41:20.826Z,2.20
2022-11-17T18:43:48.082Z,2.13
2022-11-17T18:46:21.397Z,2.93
2022-11-17T18:48:49.887Z,2.40
2022-11-17T18:51:19.992Z,2.60
2022-11-17T18:53:48.614Z,2.27
2022-11-17T18:56:17.548Z,2.33
2022-11-17T18:58:44.218Z,2.20
2022-11-17T19:01:14.780Z,2.07
2022-11-17T19:03:42.831Z,2.60
2022-11-17T19:06:10.241Z,2.20
2022-11-17T19:08:37.701Z,2.20
2022-11-17T19:11:06.574Z,2.63
2022-11-17T19:13:35.581Z,2.20
2022-11-17T19:16:15.193Z,2.43
2022-11-17T19:18:42.854Z,2.50
2022-11-17T19:21:12.075Z,2.90
2022-11-17T19:23:49.587Z,2.57
2022-11-17T19:26:25.133Z,2.90
2022-11-17T19:28:59.216Z,2.80
2022-11-17T19:31:26.541Z,2.90
2022-11-17T19:33:53.340Z,2.87
2022-11-17T19:36:22.605Z,2.70
2022-11-17T19:38:51.168Z,2.80
2022-11-17T19:41:20.553Z,2.57
2022-11-17T19:43:47.242Z,2.17
2022-11-17T19:46:15.978Z,2.37
2022-11-17T19:48:43.831Z,2.60
2022-11-17T19:51:25.203Z,2.07
2022-11-17T19:53:54.821Z,2.17
2022-11-17T19:56:22.521Z,2.77
2022-11-17T19:58:49.857Z,2.17
2022-11-17T20:01:18.817Z,2.10
2022-11-17T20:03:46.305Z,2.10
2022-11-17T20:06:17.502Z,2.27
2022-11-17T20:08:44.844Z,1.83
2022-11-17T20:11:33.398Z,1.90
2022-11-17T20:13:59.850Z,2.30
2022-11-17T20:16:27.392Z,2.00
2022-11-17T20:18:56.361Z,2.13
2022-11-17T20:21:23.779Z,2.00
2022-11-17T20:23:50.875Z,2.37
2022-11-17T20:26:23.347Z,2.03
2022-11-17T20:28:51.141Z,2.30
2022-11-17T20:31:21.839Z,2.13
2022-11-17T20:33:48.888Z,1.80
2022-11-17T20:36:20.426Z,2.10
2022-11-17T20:38:51.663Z,1.90
2022-11-17T20:41:20.881Z,2.00
2022-11-17T20:43:49.070Z,3.07
2022-11-17T20:46:15.491Z,2.37
2022-11-17T20:48:42.342Z,2.70
2022-11-17T20:51:17.094Z,2.80
2022-11-17T20:53:44.180Z,3.10
2022-11-17T20:56:12.417Z,2.60
2022-11-17T20:58:39.300Z,2.10
2022-11-17T21:01:14.563Z,2.10
2022-11-17T21:03:41.590Z,2.07
2022-11-17T21:06:08.376Z,2.30
2022-11-17T21:08:37.845Z,1.97
2022-11-17T21:11:08.079Z,2.50
2022-11-17T21:13:36.161Z,2.23
2022-11-17T21:16:05.706Z,2.40
2022-11-17T21:18:32.856Z,2.27
2022-11-17T21:21:00.256Z,2.50
2022-11-17T21:23:27.589Z,2.70
2022-11-17T21:25:54.525Z,2.40
2022-11-17T21:28:21.038Z,2.67
2022-11-17T21:30:47.618Z,2.53
2022-11-17T21:33:14.384Z,2.53
2022-11-17T21:35:40.900Z,2.60
2022-11-17T21:38:07.395Z,2.70
2022-11-17T21:40:34.155Z,2.23
2022-11-17T21:43:00.706Z,2.53
2022-11-17T21:45:27.240Z,2.53
2022-11-17T21:47:59.231Z,2.30
2022-11-17T21:50:26.101Z,2.20
2022-11-17T21:52:52.550Z,2.80
2022-11-17T21:55:19.108Z,2.43
2022-11-17T21:57:45.529Z,2.97
2022-11-17T22:00:12.868Z,2.90
2022-11-17T22:02:39.566Z,2.77
2022-11-17T22:05:06.535Z,2.40
2022-11-17T22:07:33.052Z,2.93
2022-11-17T22:09:59.538Z,2.90
2022-11-17T22:12:27.437Z,2.50
2022-11-17T22:14:53.932Z,2.80
2022-11-17T22:17:20.360Z,2.90
2022-11-17T22:19:46.796Z,2.70
2022-11-17T22:22:13.289Z,2.87
2022-11-17T22:24:40.185Z,2.70
2022-11-17T22:27:07.029Z,2.40
2022-11-17T22:29:33.588Z,2.93
2022-11-17T22:32:00.163Z,2.53
2022-11-17T22:34:26.652Z,2.23
2022-11-17T22:36:53.147Z,2.70
2022-11-17T22:39:20.033Z,2.33
2022-11-17T22:41:46.630Z,2.60
2022-11-17T22:44:14.599Z,2.83
2022-11-17T22:46:43.099Z,2.30
2022-11-17T22:49:10.323Z,2.40
2022-11-17T22:51:55.208Z,2.50
2022-11-17T22:54:21.686Z,2.23
2022-11-17T22:56:48.518Z,2.90
2022-11-17T22:59:15.286Z,2.43
2022-11-17T23:01:41.930Z,3.03
2022-11-17T23:04:08.435Z,2.40
2022-11-17T23:06:35.041Z,2.53
2022-11-17T23:09:01.512Z,2.83
2022-11-17T23:11:37.562Z,2.60
2022-11-17T23:14:09.848Z,2.70
2022-11-17T23:16:37.488Z,2.77
2022-11-17T23:19:04.786Z,2.23
2022-11-17T23:21:31.277Z,2.70
2022-11-17T23:23:57.947Z,2.63
2022-11-17T23:26:24.469Z,2.47
2022-11-17T23:28:51.209Z,2.20
2022-11-17T23:31:18.002Z,2.70
2022-11-17T23:33:46.903Z,2.10
2022-11-17T23:36:21.822Z,1.97
2022-11-17T23:38:50.257Z,2.27
2022-11-17T23:41:19.405Z,2.40
2022-11-17T23:43:46.285Z,2.67
2022-11-17T23:46:15.333Z,2.57
2022-11-17T23:48:42.828Z,3.10
2022-11-17T23:51:15.096Z,2.47
2022-11-17T23:53:42.389Z,2.20
2022-11-17T23:56:10.297Z,2.50
2022-11-17T23:58:37.088Z,2.33
